MSC Oliver — H8RY — position and weather

sailwx.info

Track history (hours):
 
Tides and Currents Weather Stations Pressure Air Temp Water Temp Dewpoint Dewpoint Depression Visibility Wind Speed Wind Dir Waves Ship Positions

MSC Oliver

Last reported at 2018-Jun-16 03:31 UTC. Time now 2018-Jun-23 06:07 UTC.
Position N 31°10' E 032°20'.

Length 396 m; draft 15 m.

Type: Ship (hazmat cat A). MMSI: 356289000.

Date/timePositionNaut miles runAvg speedWind from/ knotsBaromVisibWave heightAir tempDewpointWater temp
2018-Jun-16 03:31N 31°10' E 032°20'0 9.2
2018-Jun-16 03:29N 31°10' E 032°20'4 7.5
2018-Jun-16 03:00N 31°13' E 032°21'5 9.1
2018-Jun-16 02:30N 31°18' E 032°22'711.1
2018-Jun-16 01:54N 31°24' E 032°24'3 6.8
2018-Jun-16 01:30N 31°27' E 032°23'4 7.9
2018-Jun-16 01:00N 31°27' E 032°18'0 0.8
2018-Jun-16 00:30N 31°27' E 032°17'0 0.1
2018-Jun-16 00:00N 31°27' E 032°17'0 0.0
2018-Jun-15 23:27N 31°27' E 032°17'0 0.0
2018-Jun-15 23:00N 31°27' E 032°17'0 0.0
2018-Jun-15 22:30N 31°27' E 032°17'0 0.0
2018-Jun-15 22:00N 31°27' E 032°17'0 0.0
2018-Jun-15 21:30N 31°27' E 032°17'0 0.2
2018-Jun-15 20:54N 31°27' E 032°17'0 0.1
2018-Jun-15 20:30N 31°27' E 032°17'5 9.1
2018-Jun-15 20:00N 31°30' E 032°14'612.1
2018-Jun-15 19:30N 31°35' E 032°09'712.1
2018-Jun-15 18:58N 31°39' E 032°04'612.0
2018-Jun-15 18:30N 31°43' E 031°59'611.6
2018-Jun-15 18:00N 31°46' E 031°53'612.0
2018-Jun-15 17:30N 31°48' E 031°46'612.2
2018-Jun-15 17:00N 31°50' E 031°40'612.2
2018-Jun-15 16:30N 31°51' E 031°33'612.1
2018-Jun-15 16:00N 31°52' E 031°26'812.0
2018-Jun-15 15:21N 31°54' E 031°16'411.6
2018-Jun-15 14:58N 31°55' E 031°11'511.6
2018-Jun-15 14:30N 31°57' E 031°05'611.7
2018-Jun-15 14:00N 31°59' E 030°59'611.7
2018-Jun-15 13:30N 32°00' E 030°52'611.7
2018-Jun-15 13:00N 32°02' E 030°46'2212.0
2018-Jun-15 11:12N 32°08' E 030°21'312.0
2018-Jun-15 10:59N 32°09' E 030°18'1711.9
2018-Jun-15 09:32N 32°13' E 029°59'011.7
2018-Jun-15 09:31N 32°13' E 029°58'2511.9
2018-Jun-15 07:25N 32°20' E 029°30'15611.6
2018-Jun-14 18:00N 33°02' E 026°32'1012.1
2018-Jun-14 17:11N 33°05' E 026°21'412.3
2018-Jun-14 16:52N 33°06' E 026°16'59312.0
2018-Jun-12 15:22N 35°45' E 014°45'411.1
2018-Jun-12 15:00N 35°47' E 014°40'510.1
2018-Jun-12 14:30N 35°48' E 014°34'1 2.5
2018-Jun-12 13:59N 35°49' E 014°33'0 0.0
2018-Jun-12 13:17N 35°49' E 014°33'0 0.0
2018-Jun-12 12:59N 35°49' E 014°33'0 0.0
2018-Jun-12 12:26N 35°49' E 014°33'0 0.0
2018-Jun-12 11:59N 35°49' E 014°33'0 0.0
2018-Jun-12 11:29N 35°49' E 014°33'0 0.0
2018-Jun-12 10:59N 35°49' E 014°33'0 0.0
2018-Jun-12 10:29N 35°49' E 014°33'0 0.0
2018-Jun-12 09:59N 35°49' E 014°33'0 0.0
2018-Jun-12 09:26N 35°49' E 014°33'0 0.0
2018-Jun-12 08:59N 35°49' E 014°33'0 0.0
2018-Jun-12 08:29N 35°49' E 014°33'0 0.0
2018-Jun-12 04:14N 35°49' E 014°33'0 0.0
2018-Jun-12 03:54N 35°49' E 014°33'0 0.5
2018-Jun-12 03:30N 35°49' E 014°33'1 2.6
2018-Jun-12 03:00N 35°48' E 014°34'3 5.4
2018-Jun-12 02:30N 35°46' E 014°36'4 8.6
2018-Jun-12 02:00N 35°45' E 014°31'915.4
2018-Jun-12 01:24N 35°47' E 014°20'716.3
2018-Jun-12 01:00N 35°51' E 014°13'918.2
2018-Jun-12 00:30N 35°56' E 014°04'918.5
2018-Jun-12 00:00N 36°01' E 013°54'918.2
2018-Jun-11 23:30N 36°06' E 013°45'918.1
2018-Jun-11 23:00N 36°11' E 013°36'918.0
2018-Jun-11 22:29N 36°15' E 013°25'918.1
2018-Jun-11 22:00N 36°19' E 013°16'918.3
2018-Jun-11 21:30N 36°24' E 013°06'918.4
2018-Jun-11 21:00N 36°29' E 012°57'918.4
2018-Jun-11 20:30N 36°34' E 012°47'918.5
2018-Jun-11 20:00N 36°38' E 012°37'918.9
2018-Jun-11 19:30N 36°43' E 012°27'1018.7
2018-Jun-11 19:00N 36°48' E 012°16'918.4
2018-Jun-11 18:30N 36°53' E 012°07'918.5
2018-Jun-11 18:00N 36°58' E 011°57'43519.0
2018-Jun-10 19:09N 36°53' E 002°53'1219.6
2018-Jun-10 18:31N 36°51' E 002°38'119.7
2018-Jun-10 18:30N 36°51' E 002°37'7621.3
2018-Jun-10 14:56N 36°41' E 001°04'29621.1
2018-Jun-10 00:53N 36°02' W 005°01'822.3
2018-Jun-10 00:30N 36°00' W 005°11'1122.9
2018-Jun-10 00:00N 35°58' W 005°25'1222.0
2018-Jun-09 23:29N 35°56' W 005°38'1321.9
2018-Jun-09 22:53N 35°55' W 005°55'21818.3
2018-Jun-09 11:01N 37°45' W 009°49'1320.8
2018-Jun-09 10:24N 37°57' W 009°53'2520.7
2018-Jun-09 09:13N 38°21' W 009°59'521.2
2018-Jun-09 08:59N 38°26' W 010°00'1121.3
2018-Jun-09 08:28N 38°37' W 010°03'1021.0
2018-Jun-09 08:00N 38°46' W 010°06'1020.4
2018-Jun-09 07:31N 38°56' W 010°05'1020.7
2018-Jun-09 07:00N 39°07' W 010°05'1220.9
2018-Jun-09 06:27N 39°18' W 010°05'67319.6
2018-Jun-07 20:03N 49°36' W 003°51'1121.1
2018-Jun-07 19:33N 49°41' W 003°37'121.7
2018-Jun-07 19:30N 49°42' W 003°36'1121.3
2018-Jun-07 19:00N 49°48' W 003°22'1121.5
2018-Jun-07 18:30N 49°53' W 003°08'1221.2
2018-Jun-07 17:56N 49°58' W 002°51'921.0
2018-Jun-07 17:30N 50°01' W 002°37'2020.6
2018-Jun-07 16:33N 50°06' W 002°08'120.0
2018-Jun-07 16:30N 50°06' W 002°06'1019.9
2018-Jun-07 16:00N 50°09' W 001°52'1019.4
2018-Jun-07 15:30N 50°12' W 001°37'1018.9
2018-Jun-07 15:00N 50°14' W 001°23'816.1
2018-Jun-07 14:30N 50°17' W 001°11'814.5
2018-Jun-07 13:59N 50°19' W 000°59'714.8
2018-Jun-07 13:30N 50°21' W 000°49'814.9
2018-Jun-07 13:00N 50°23' W 000°38'815.3
2018-Jun-07 12:31N 50°25' W 000°26'815.8
2018-Jun-07 12:00N 50°28' W 000°14'816.3
2018-Jun-07 11:30N 50°30' W 000°02'816.6
2018-Jun-07 11:00N 50°32' E 000°11'817.0
2018-Jun-07 10:30N 50°34' E 000°23'917.2
2018-Jun-07 10:00N 50°37' E 000°36'917.1
2018-Jun-07 09:31N 50°41' E 000°48'816.9
2018-Jun-07 09:00N 50°46' E 000°59'816.6
2018-Jun-07 08:30N 50°50' E 001°10'816.1
2018-Jun-07 08:01N 50°56' E 001°20'815.5
2018-Jun-07 07:30N 51°02' E 001°27'714.7
2018-Jun-07 07:01N 51°07' E 001°35'714.3
2018-Jun-07 06:30N 51°12' E 001°44'714.5
2018-Jun-07 06:00N 51°18' E 001°49'815.2
2018-Jun-07 05:30N 51°25' E 001°54'815.7
2018-Jun-07 05:00N 51°31' E 002°02'816.1
2018-Jun-07 04:31N 51°37' E 002°11'816.4
2018-Jun-07 04:01N 51°44' E 002°20'816.8
2018-Jun-07 03:30N 51°50' E 002°28'816.5
2018-Jun-07 03:00N 51°56' E 002°37'916.5
2018-Jun-07 02:28N 52°01' E 002°49'816.5
2018-Jun-07 01:58N 52°02' E 003°03'816.7
2018-Jun-07 01:30N 52°02' E 003°15'816.4
2018-Jun-07 01:00N 52°03' E 003°28'815.7
2018-Jun-07 00:30N 52°01' E 003°41'714.6
2018-Jun-07 00:01N 52°02' E 003°53'4 8.9
2018-Jun-06 23:31N 52°00' E 003°60'4 8.4
2018-Jun-06 23:01N 51°58' E 004°05'2 4.1
2018-Jun-06 22:31N 51°58' E 004°02'1 2.7
2018-Jun-06 22:01N 51°58' E 003°60'0 0.9
2018-Jun-06 21:31N 51°57' E 004°00'0 0.1
2018-Jun-06 21:00N 51°57' E 004°00'0 0.0
2018-Jun-06 20:30N 51°57' E 004°00'0 0.0
2018-Jun-06 20:00N 51°57' E 004°00'0 0.0
2018-Jun-06 19:30N 51°57' E 004°00'0 0.0
2018-Jun-06 19:00N 51°57' E 004°00'0 0.0
2018-Jun-06 18:30N 51°57' E 004°00'0 0.0
2018-Jun-06 18:00N 51°57' E 004°00'0 0.0
2018-Jun-06 17:30N 51°57' E 004°00'0 0.0
2018-Jun-06 17:00N 51°57' E 004°00'0 0.0
2018-Jun-06 16:30N 51°57' E 004°00'0 0.0
2018-Jun-06 16:00N 51°57' E 004°00'0 0.0
2018-Jun-06 15:30N 51°57' E 004°00'0 0.0
2018-Jun-06 15:00N 51°57' E 004°00'0 0.0
2018-Jun-06 14:30N 51°57' E 004°00'0 0.0
2018-Jun-06 14:00N 51°57' E 004°00'0 0.0
2018-Jun-06 13:30N 51°57' E 004°00'0 0.0
2018-Jun-06 13:00N 51°57' E 004°00'0 0.0
2018-Jun-06 12:30N 51°57' E 004°00'0 0.0
2018-Jun-06 12:00N 51°57' E 004°00'0 0.0
2018-Jun-06 11:30N 51°57' E 004°00'0 0.0
2018-Jun-06 11:00N 51°57' E 004°00'0 0.0
2018-Jun-06 10:30N 51°57' E 004°00'0 0.0
2018-Jun-06 10:00N 51°57' E 004°00'0 0.0
2018-Jun-06 09:30N 51°57' E 004°00'0 0.0
2018-Jun-06 09:00N 51°57' E 004°00'0 0.0
2018-Jun-06 08:30N 51°57' E 004°00'0 0.0
2018-Jun-06 08:00N 51°57' E 004°00'0 0.0
2018-Jun-06 07:30N 51°57' E 004°00'0 0.0
2018-Jun-06 07:00N 51°57' E 004°00'0 0.0
2018-Jun-06 06:30N 51°57' E 004°00'0 0.0
2018-Jun-06 06:00N 51°57' E 004°00'0 0.0
2018-Jun-06 05:30N 51°57' E 004°00'0 0.0
2018-Jun-06 05:00N 51°57' E 004°00'0 0.0
2018-Jun-06 04:30N 51°57' E 004°00'0 0.0
2018-Jun-06 04:00N 51°57' E 004°00'  
Track history (hours):
 
Tides and Currents Weather Stations Pressure Air Temp Water Temp Dewpoint Dewpoint Depression Visibility Wind Speed Wind Dir Waves Ship Positions

MSC Oliver

Last reported at 2018-Jun-16 03:31 UTC. Time now 2018-Jun-23 06:07 UTC.
Position N 31°10' E 032°20'.

Length 396 m; draft 15 m.

Type: Ship (hazmat cat A). MMSI: 356289000.

Date/timePositionNaut miles runAvg speedWind from/ knotsBaromVisibWave heightAir tempDewpointWater temp
2018-Jun-16 03:31N 31°10' E 032°20'0 9.2
2018-Jun-16 03:29N 31°10' E 032°20'4 7.5
2018-Jun-16 03:00N 31°13' E 032°21'5 9.1
2018-Jun-16 02:30N 31°18' E 032°22'711.1
2018-Jun-16 01:54N 31°24' E 032°24'3 6.8
2018-Jun-16 01:30N 31°27' E 032°23'4 7.9
2018-Jun-16 01:00N 31°27' E 032°18'0 0.8
2018-Jun-16 00:30N 31°27' E 032°17'0 0.1
2018-Jun-16 00:00N 31°27' E 032°17'0 0.0
2018-Jun-15 23:27N 31°27' E 032°17'0 0.0
2018-Jun-15 23:00N 31°27' E 032°17'0 0.0
2018-Jun-15 22:30N 31°27' E 032°17'0 0.0
2018-Jun-15 22:00N 31°27' E 032°17'0 0.0
2018-Jun-15 21:30N 31°27' E 032°17'0 0.2
2018-Jun-15 20:54N 31°27' E 032°17'0 0.1
2018-Jun-15 20:30N 31°27' E 032°17'5 9.1
2018-Jun-15 20:00N 31°30' E 032°14'612.1
2018-Jun-15 19:30N 31°35' E 032°09'712.1
2018-Jun-15 18:58N 31°39' E 032°04'612.0
2018-Jun-15 18:30N 31°43' E 031°59'611.6
2018-Jun-15 18:00N 31°46' E 031°53'612.0
2018-Jun-15 17:30N 31°48' E 031°46'612.2
2018-Jun-15 17:00N 31°50' E 031°40'612.2
2018-Jun-15 16:30N 31°51' E 031°33'612.1
2018-Jun-15 16:00N 31°52' E 031°26'812.0
2018-Jun-15 15:21N 31°54' E 031°16'411.6
2018-Jun-15 14:58N 31°55' E 031°11'511.6
2018-Jun-15 14:30N 31°57' E 031°05'611.7
2018-Jun-15 14:00N 31°59' E 030°59'611.7
2018-Jun-15 13:30N 32°00' E 030°52'611.7
2018-Jun-15 13:00N 32°02' E 030°46'2212.0
2018-Jun-15 11:12N 32°08' E 030°21'312.0
2018-Jun-15 10:59N 32°09' E 030°18'1711.9
2018-Jun-15 09:32N 32°13' E 029°59'011.7
2018-Jun-15 09:31N 32°13' E 029°58'2511.9
2018-Jun-15 07:25N 32°20' E 029°30'15611.6
2018-Jun-14 18:00N 33°02' E 026°32'1012.1
2018-Jun-14 17:11N 33°05' E 026°21'412.3
2018-Jun-14 16:52N 33°06' E 026°16'59312.0
2018-Jun-12 15:22N 35°45' E 014°45'411.1
2018-Jun-12 15:00N 35°47' E 014°40'510.1
2018-Jun-12 14:30N 35°48' E 014°34'1 2.5
2018-Jun-12 13:59N 35°49' E 014°33'0 0.0
2018-Jun-12 13:17N 35°49' E 014°33'0 0.0
2018-Jun-12 12:59N 35°49' E 014°33'0 0.0
2018-Jun-12 12:26N 35°49' E 014°33'0 0.0
2018-Jun-12 11:59N 35°49' E 014°33'0 0.0
2018-Jun-12 11:29N 35°49' E 014°33'0 0.0
2018-Jun-12 10:59N 35°49' E 014°33'0 0.0
2018-Jun-12 10:29N 35°49' E 014°33'0 0.0
2018-Jun-12 09:59N 35°49' E 014°33'0 0.0
2018-Jun-12 09:26N 35°49' E 014°33'0 0.0
2018-Jun-12 08:59N 35°49' E 014°33'0 0.0
2018-Jun-12 08:29N 35°49' E 014°33'0 0.0
2018-Jun-12 04:14N 35°49' E 014°33'0 0.0
2018-Jun-12 03:54N 35°49' E 014°33'0 0.5
2018-Jun-12 03:30N 35°49' E 014°33'1 2.6
2018-Jun-12 03:00N 35°48' E 014°34'3 5.4
2018-Jun-12 02:30N 35°46' E 014°36'4 8.6
2018-Jun-12 02:00N 35°45' E 014°31'915.4
2018-Jun-12 01:24N 35°47' E 014°20'716.3
2018-Jun-12 01:00N 35°51' E 014°13'918.2
2018-Jun-12 00:30N 35°56' E 014°04'918.5
2018-Jun-12 00:00N 36°01' E 013°54'918.2
2018-Jun-11 23:30N 36°06' E 013°45'918.1
2018-Jun-11 23:00N 36°11' E 013°36'918.0
2018-Jun-11 22:29N 36°15' E 013°25'918.1
2018-Jun-11 22:00N 36°19' E 013°16'918.3
2018-Jun-11 21:30N 36°24' E 013°06'918.4
2018-Jun-11 21:00N 36°29' E 012°57'918.4
2018-Jun-11 20:30N 36°34' E 012°47'918.5
2018-Jun-11 20:00N 36°38' E 012°37'918.9
2018-Jun-11 19:30N 36°43' E 012°27'1018.7
2018-Jun-11 19:00N 36°48' E 012°16'918.4
2018-Jun-11 18:30N 36°53' E 012°07'918.5
2018-Jun-11 18:00N 36°58' E 011°57'43519.0
2018-Jun-10 19:09N 36°53' E 002°53'1219.6
2018-Jun-10 18:31N 36°51' E 002°38'119.7
2018-Jun-10 18:30N 36°51' E 002°37'7621.3
2018-Jun-10 14:56N 36°41' E 001°04'29621.1
2018-Jun-10 00:53N 36°02' W 005°01'822.3
2018-Jun-10 00:30N 36°00' W 005°11'1122.9
2018-Jun-10 00:00N 35°58' W 005°25'1222.0
2018-Jun-09 23:29N 35°56' W 005°38'1321.9
2018-Jun-09 22:53N 35°55' W 005°55'21818.3
2018-Jun-09 11:01N 37°45' W 009°49'1320.8
2018-Jun-09 10:24N 37°57' W 009°53'2520.7
2018-Jun-09 09:13N 38°21' W 009°59'521.2
2018-Jun-09 08:59N 38°26' W 010°00'1121.3
2018-Jun-09 08:28N 38°37' W 010°03'1021.0
2018-Jun-09 08:00N 38°46' W 010°06'1020.4
2018-Jun-09 07:31N 38°56' W 010°05'1020.7
2018-Jun-09 07:00N 39°07' W 010°05'1220.9
2018-Jun-09 06:27N 39°18' W 010°05'67319.6
2018-Jun-07 20:03N 49°36' W 003°51'1121.1
2018-Jun-07 19:33N 49°41' W 003°37'121.7
2018-Jun-07 19:30N 49°42' W 003°36'1121.3
2018-Jun-07 19:00N 49°48' W 003°22'1121.5
2018-Jun-07 18:30N 49°53' W 003°08'1221.2
2018-Jun-07 17:56N 49°58' W 002°51'921.0
2018-Jun-07 17:30N 50°01' W 002°37'2020.6
2018-Jun-07 16:33N 50°06' W 002°08'120.0
2018-Jun-07 16:30N 50°06' W 002°06'1019.9
2018-Jun-07 16:00N 50°09' W 001°52'1019.4
2018-Jun-07 15:30N 50°12' W 001°37'1018.9
2018-Jun-07 15:00N 50°14' W 001°23'816.1
2018-Jun-07 14:30N 50°17' W 001°11'814.5
2018-Jun-07 13:59N 50°19' W 000°59'714.8
2018-Jun-07 13:30N 50°21' W 000°49'814.9
2018-Jun-07 13:00N 50°23' W 000°38'815.3
2018-Jun-07 12:31N 50°25' W 000°26'815.8
2018-Jun-07 12:00N 50°28' W 000°14'816.3
2018-Jun-07 11:30N 50°30' W 000°02'816.6
2018-Jun-07 11:00N 50°32' E 000°11'817.0
2018-Jun-07 10:30N 50°34' E 000°23'917.2
2018-Jun-07 10:00N 50°37' E 000°36'917.1
2018-Jun-07 09:31N 50°41' E 000°48'816.9
2018-Jun-07 09:00N 50°46' E 000°59'816.6
2018-Jun-07 08:30N 50°50' E 001°10'816.1
2018-Jun-07 08:01N 50°56' E 001°20'815.5
2018-Jun-07 07:30N 51°02' E 001°27'714.7
2018-Jun-07 07:01N 51°07' E 001°35'714.3
2018-Jun-07 06:30N 51°12' E 001°44'714.5
2018-Jun-07 06:00N 51°18' E 001°49'815.2
2018-Jun-07 05:30N 51°25' E 001°54'815.7
2018-Jun-07 05:00N 51°31' E 002°02'816.1
2018-Jun-07 04:31N 51°37' E 002°11'816.4
2018-Jun-07 04:01N 51°44' E 002°20'816.8
2018-Jun-07 03:30N 51°50' E 002°28'816.5
2018-Jun-07 03:00N 51°56' E 002°37'916.5
2018-Jun-07 02:28N 52°01' E 002°49'816.5
2018-Jun-07 01:58N 52°02' E 003°03'816.7
2018-Jun-07 01:30N 52°02' E 003°15'816.4
2018-Jun-07 01:00N 52°03' E 003°28'815.7
2018-Jun-07 00:30N 52°01' E 003°41'714.6
2018-Jun-07 00:01N 52°02' E 003°53'4 8.9
2018-Jun-06 23:31N 52°00' E 003°60'4 8.4
2018-Jun-06 23:01N 51°58' E 004°05'2 4.1
2018-Jun-06 22:31N 51°58' E 004°02'1 2.7
2018-Jun-06 22:01N 51°58' E 003°60'0 0.9
2018-Jun-06 21:31N 51°57' E 004°00'0 0.1
2018-Jun-06 21:00N 51°57' E 004°00'0 0.0
2018-Jun-06 20:30N 51°57' E 004°00'0 0.0
2018-Jun-06 20:00N 51°57' E 004°00'0 0.0
2018-Jun-06 19:30N 51°57' E 004°00'0 0.0
2018-Jun-06 19:00N 51°57' E 004°00'0 0.0
2018-Jun-06 18:30N 51°57' E 004°00'0 0.0
2018-Jun-06 18:00N 51°57' E 004°00'0 0.0
2018-Jun-06 17:30N 51°57' E 004°00'0 0.0
2018-Jun-06 17:00N 51°57' E 004°00'0 0.0
2018-Jun-06 16:30N 51°57' E 004°00'0 0.0
2018-Jun-06 16:00N 51°57' E 004°00'0 0.0
2018-Jun-06 15:30N 51°57' E 004°00'0 0.0
2018-Jun-06 15:00N 51°57' E 004°00'0 0.0
2018-Jun-06 14:30N 51°57' E 004°00'0 0.0
2018-Jun-06 14:00N 51°57' E 004°00'0 0.0
2018-Jun-06 13:30N 51°57' E 004°00'0 0.0
2018-Jun-06 13:00N 51°57' E 004°00'0 0.0
2018-Jun-06 12:30N 51°57' E 004°00'0 0.0
2018-Jun-06 12:00N 51°57' E 004°00'0 0.0
2018-Jun-06 11:30N 51°57' E 004°00'0 0.0
2018-Jun-06 11:00N 51°57' E 004°00'0 0.0
2018-Jun-06 10:30N 51°57' E 004°00'0 0.0
2018-Jun-06 10:00N 51°57' E 004°00'0 0.0
2018-Jun-06 09:30N 51°57' E 004°00'0 0.0
2018-Jun-06 09:00N 51°57' E 004°00'0 0.0
2018-Jun-06 08:30N 51°57' E 004°00'0 0.0
2018-Jun-06 08:00N 51°57' E 004°00'0 0.0
2018-Jun-06 07:30N 51°57' E 004°00'0 0.0
2018-Jun-06 07:00N 51°57' E 004°00'0 0.0
2018-Jun-06 06:30N 51°57' E 004°00'0 0.0
2018-Jun-06 06:00N 51°57' E 004°00'0 0.0
2018-Jun-06 05:30N 51°57' E 004°00'0 0.0
2018-Jun-06 05:00N 51°57' E 004°00'0 0.0
2018-Jun-06 04:30N 51°57' E 004°00'0 0.0
2018-Jun-06 04:00N 51°57' E 004°00'  

Dump ship's entire track history